Montrose Regional Airport
KMTJ : now visible

Airfield :











YOU CAN JOIN US ON...

 
LOGIN :

Register | Disclaimer

   EN    FR    IT 

 









Legend :    VFR   Marginal VFR   IFR   Intensive IFR   Very Intensive IFR
Visi :
Ceiling :
>= 8 km
>= 3000ft
5 to 8 km
1000 to 3000 ft
1500m to 5 km
500 to 1000 ft
800 to 1500m
200 to 500 ft
< 800m
< 200 ft
Symbols :   Thunderstorms  Fog  Heavy snow  Heavy precipitations  Wind > 20 kt






- Airport Elevation : 5759 ft


KMTJ - Montrose Regional

CURRENT METAR :
  • 251453Z AUTO 28003KT 10SM OVC033 M03/M08 A3024 RMK AO2 SLP242 T10281078 53015

EXPIRED METARs :
  • 251353Z AUTO 36005KT 10SM OVC031 M03/M07 A3022 RMK AO2 SLP232 T10331072
  • 251318Z AUTO 01006KT 10SM OVC030 M03/M07 A3021 RMK AO2 T10331067
  • 251253Z AUTO 01006KT 10SM OVC029 M03/M07 A3020 RMK AO2 SLP221 T10331067

TAF KMTJ
Valid from the 25 at 12:00 until the 26 at 12:00 UTC


251128Z 2512/2612 01006KT P6SM VCSH BKN028 BKN040
FM251400 VRB04KT P6SM VCSH OVC035
FM251700 VRB04KT P6SM SCT040 BKN080
FM252300 32005KT P6SM FEW080 FEW200
FM260200 16005KT P6SM FEW090 SCT200
KZDV FIR / North America



MET'MAP, your aeronautical weather chart ! - Copyright ORBIFLY December 2007 - Disclaimer

ORBIFLY MET'MAP TEAM :

Programming & Development : Alexandra Zaïnal
Concept & original design : Baudouin d'Aumeries
Assistance for programming : Marc-Olivier Méhu
Technical & hardware support : Manuel Goepfert

Contact : metmap@orbifly.com




SOURCES & CREDITS :

   NOAA       Earth
Advisory